Time;durP1;ratioP1;P1;durP2;ratioP2;P2;SDS_P1;SDS_P2;PMS_P1;PMS_P2;Temp;Humidity;BMP_temperature;BMP_pressure;BME280_temperature;BME280_humidity;BME280_pressure;Samples;Min_cycle;Max_cycle;Signal;HPM_P1;HPM_P2
2023/04/27 00:01:13;;;;;;;8.57;7.13;;;9.10;99.90;;;;;;5042237;28;20466;-86
2023/04/27 00:03:40;;;;;;;12.30;7.50;;;9.10;99.90;;;;;;5043687;28;20207;-85
2023/04/27 00:06:06;;;;;;;10.43;7.75;;;9.10;99.90;;;;;;5019560;28;20182;-83
2023/04/27 00:08:32;;;;;;;11.40;8.13;;;9.00;99.90;;;;;;5033670;28;20246;-83
2023/04/27 00:10:58;;;;;;;12.63;7.27;;;9.00;99.90;;;;;;5016523;28;20237;-83
2023/04/27 00:13:23;;;;;;;16.33;8.70;;;9.00;99.90;;;;;;5033836;28;20441;-83
2023/04/27 00:15:49;;;;;;;13.80;10.20;;;9.00;99.90;;;;;;5033093;28;20187;-81
2023/04/27 00:18:16;;;;;;;13.10;9.07;;;9.00;99.90;;;;;;5032412;28;20201;-83
2023/04/27 00:21:23;;;;;;;;;;;;;;;;;;;;;
2023/04/27 00:24:40;;;;;;;;;;;;;;;;;;;;;
2023/04/27 00:27:08;;;;;;;14.90;8.13;;;9.00;99.90;;;;;;5029854;28;20221;-83
2023/04/27 00:33:33;;;;;;;11.60;7.90;;;9.00;99.90;;;;;;5020765;28;21043;-83
2023/04/27 00:36:09;;;;;;;14.80;9.20;;;9.00;99.90;;;;;;5014993;28;20575;-83
2023/04/27 00:39:12;;;;;;;10.55;8.38;;;9.00;99.90;;;;;;5014019;28;20520;-84
2023/04/27 00:41:44;;;;;;;13.75;8.55;;;9.00;99.90;;;;;;5003511;28;20221;-83
2023/04/27 00:45:04;;;;;;;12.50;8.10;;;8.90;99.90;;;;;;5015384;28;20269;-84
2023/04/27 00:51:20;;;;;;;13.80;9.10;;;8.80;99.90;;;;;;5037019;28;20206;-85
2023/04/27 00:54:26;;;;;;;12.55;8.30;;;8.70;99.90;;;;;;4958423;28;20240;-85
2023/04/27 00:57:04;;;;;;;12.80;8.75;;;8.70;99.90;;;;;;4976417;28;20298;-84
2023/04/27 00:59:58;;;;;;;12.95;9.00;;;8.60;99.90;;;;;;4989952;28;20182;-83
2023/04/27 01:02:46;;;;;;;13.00;9.40;;;8.60;99.90;;;;;;5017191;28;20190;-83
2023/04/27 01:05:29;;;;;;;17.55;9.52;;;8.50;99.90;;;;;;5025905;28;20202;-83
2023/04/27 01:08:17;;;;;;;;;;;;;;;;;;;;;
2023/04/27 01:10:56;;;;;;;17.23;10.20;;;8.40;99.90;;;;;;5030192;28;20190;-84
2023/04/27 01:13:30;;;;;;;13.60;10.05;;;8.30;99.90;;;;;;5010740;28;20285;-83
2023/04/27 01:16:06;;;;;;;13.30;10.45;;;8.20;99.90;;;;;;5014114;28;20228;-82
2023/04/27 01:18:47;;;;;;;16.15;9.35;;;8.10;99.90;;;;;;5016731;28;20190;-83
2023/04/27 01:21:18;;;;;;;14.80;9.63;;;8.10;99.90;;;;;;5016237;28;20215;-84
2023/04/27 01:29:56;;;;;;;18.77;10.20;;;7.80;99.90;;;;;;5030926;28;20213;-84
2023/04/27 01:36:28;;;;;;;15.73;9.98;;;7.70;99.90;;;;;;5009346;28;20221;-85
2023/04/27 01:39:22;;;;;;;13.57;9.75;;;7.60;99.90;;;;;;5018933;28;20216;-85
2023/04/27 01:42:30;;;;;;;13.48;9.90;;;7.60;99.90;;;;;;5012790;28;20193;-84
2023/04/27 01:45:36;;;;;;;15.80;10.15;;;7.50;99.90;;;;;;5046748;28;20680;-83
2023/04/27 01:48:32;;;;;;;15.43;8.68;;;7.50;99.90;;;;;;5023785;28;20249;-85
2023/04/27 01:51:28;;;;;;;14.02;8.93;;;7.50;99.90;;;;;;5028126;28;20206;-84
2023/04/27 01:54:17;;;;;;;24.38;10.52;;;7.40;99.90;;;;;;5015566;28;20222;-83
2023/04/27 01:56:58;;;;;;;13.75;10.07;;;7.40;99.90;;;;;;5041006;28;20214;-83
2023/04/27 01:59:52;;;;;;;15.63;9.20;;;7.30;99.90;;;;;;5024368;28;20182;-84
2023/04/27 02:02:28;;;;;;;13.38;9.55;;;7.30;99.90;;;;;;5014451;28;20195;-84
2023/04/27 02:05:31;;;;;;;12.57;8.65;;;7.20;99.90;;;;;;5031053;28;20267;-83
2023/04/27 02:08:36;;;;;;;14.02;8.88;;;7.20;99.90;;;;;;5031726;28;20208;-83
2023/04/27 02:11:26;;;;;;;14.35;9.80;;;7.20;99.90;;;;;;5021763;28;20186;-83
2023/04/27 02:14:21;;;;;;;13.48;8.15;;;7.10;99.90;;;;;;5024279;28;20229;-84
2023/04/27 02:21:06;;;;;;;13.75;8.20;;;7.00;99.90;;;;;;4967777;28;20184;-84
2023/04/27 02:23:35;;;;;;;16.38;9.15;;;6.90;99.90;;;;;;4955417;29;20299;-84
2023/04/27 02:26:29;;;;;;;18.48;8.98;;;6.90;99.90;;;;;;5004607;28;20967;-85
2023/04/27 02:33:04;;;;;;;13.73;9.52;;;6.70;99.90;;;;;;5018582;28;20183;-84
2023/04/27 02:35:46;;;;;;;15.65;9.73;;;6.70;99.90;;;;;;5015427;28;20228;-84
2023/04/27 02:38:22;;;;;;;14.30;7.90;;;6.70;99.90;;;;;;5035182;28;20217;-84
2023/04/27 02:41:17;;;;;;;13.75;9.40;;;6.60;99.90;;;;;;5027188;28;20686;-85
2023/04/27 02:44:37;;;;;;;12.32;8.50;;;6.60;99.90;;;;;;5005751;28;20253;-84
2023/04/27 02:47:38;;;;;;;;;;;;;;;;;;;;;
2023/04/27 02:50:43;;;;;;;;;;;;;;;;;;;;;
2023/04/27 02:53:12;;;;;;;14.00;8.90;;;6.20;99.90;;;;;;5029512;28;20273;-84
2023/04/27 03:03:10;;;;;;;;;;;;;;;;;;;;;
2023/04/27 03:05:50;;;;;;;14.35;8.50;;;6.20;99.90;;;;;;5036141;28;20908;-84
2023/04/27 03:08:25;;;;;;;14.70;8.68;;;6.20;99.90;;;;;;5014056;28;20194;-85
2023/04/27 03:11:11;;;;;;;;;;;;;;;;;;;;;
2023/04/27 03:14:10;;;;;;;;;;;;;;;;;;;;;
2023/04/27 03:16:56;;;;;;;13.27;9.50;;;6.20;99.90;;;;;;5035194;28;20294;-84
2023/04/27 03:19:54;;;;;;;16.92;9.90;;;6.20;99.90;;;;;;5019258;28;20277;-85
2023/04/27 03:22:47;;;;;;;14.07;9.85;;;6.10;99.90;;;;;;5020565;28;20190;-85
2023/04/27 03:25:34;;;;;;;14.27;8.55;;;6.10;99.90;;;;;;5017025;28;20653;-85
2023/04/27 03:28:49;;;;;;;14.55;8.80;;;6.10;1.00;;;;;;5017650;28;20190;-84
2023/04/27 03:31:50;;;;;;;;;;;;;;;;;;;;;
2023/04/27 03:34:29;;;;;;;13.40;8.40;;;5.90;1.00;;;;;;5046033;28;20241;-84
2023/04/27 03:37:35;;;;;;;14.65;9.75;;;5.80;1.00;;;;;;5027653;28;20594;-84
2023/04/27 03:40:11;;;;;;;15.13;8.57;;;5.80;1.00;;;;;;5016594;28;20187;-85
2023/04/27 03:46:35;;;;;;;18.60;9.82;;;5.70;1.00;;;;;;5027291;28;20197;-84
2023/04/27 03:53:25;;;;;;;16.23;9.63;;;5.70;1.00;;;;;;5004764;28;20277;-84
2023/04/27 03:55:42;;;;;;;15.38;8.68;;;5.70;1.00;;;;;;5025831;28;20209;-84
2023/04/27 03:58:21;;;;;;;14.35;9.00;;;5.70;1.00;;;;;;5019982;28;20206;-84
2023/04/27 04:01:00;;;;;;;13.73;9.20;;;5.60;1.00;;;;;;5018939;28;20186;-84
2023/04/27 04:03:54;;;;;;;;;;;;;;;;;;;;;
2023/04/27 04:07:08;;;;;;;16.23;9.73;;;5.60;1.00;;;;;;5032979;28;20239;-84
2023/04/27 04:12:54;;;;;;;15.88;9.00;;;5.60;1.00;;;;;;5034275;28;20182;-84
2023/04/27 04:15:40;;;;;;;17.17;9.68;;;5.60;1.00;;;;;;5019376;28;20202;-84
2023/04/27 04:18:33;;;;;;;15.95;9.23;;;5.70;1.00;;;;;;5033953;28;20238;-83
2023/04/27 04:21:35;;;;;;;14.25;9.73;;;5.70;1.00;;;;;;5014933;28;20216;-84
2023/04/27 04:30:49;;;;;;;14.30;8.80;;;5.80;1.00;;;;;;4958163;28;20233;-83
2023/04/27 04:34:00;;;;;;;;;;;;;;;;;;;;;
2023/04/27 04:36:56;;;;;;;;;;;;;;;;;;;;;
2023/04/27 04:40:00;;;;;;;;;;;;;;;;;;;;;
2023/04/27 04:42:52;;;;;;;;;;;;;;;;;;;;;
2023/04/27 04:45:47;;;;;;;17.85;9.60;;;6.10;1.00;;;;;;5032266;28;20262;-83
2023/04/27 04:49:16;;;;;;;16.58;9.30;;;6.20;1.00;;;;;;5000713;28;20602;-85
2023/04/27 04:51:54;;;;;;;17.27;9.10;;;6.30;1.00;;;;;;4936743;29;20270;-84
2023/04/27 04:55:21;;;;;;;14.07;8.98;;;6.40;1.00;;;;;;5007918;28;20316;-85
2023/04/27 04:57:56;;;;;;;15.30;9.52;;;6.50;1.00;;;;;;5016486;28;20838;-85
2023/04/27 05:00:57;;;;;;;13.93;9.55;;;6.60;1.00;;;;;;5034891;28;20200;-85
2023/04/27 05:03:40;;;;;;;11.23;8.00;;;6.70;1.00;;;;;;5017254;28;20793;-83
2023/04/27 05:06:32;;;;;;;14.65;8.88;;;6.80;1.00;;;;;;5018708;28;20229;-84
2023/04/27 05:09:06;;;;;;;14.52;9.95;;;7.00;1.00;;;;;;5014210;28;20213;-84
2023/04/27 05:11:48;;;;;;;19.98;9.70;;;7.00;99.90;;;;;;5037990;28;20178;-84
2023/04/27 05:17:09;;;;;;;16.20;10.45;;;7.30;99.90;;;;;;5034871;28;20258;-84
2023/04/27 05:20:14;;;;;;;16.53;8.40;;;7.60;99.90;;;;;;5015038;28;20179;-84
2023/04/27 05:22:48;;;;;;;14.17;8.60;;;8.50;99.90;;;;;;5012301;28;20202;-84
2023/04/27 05:25:44;;;;;;;;;;;;;;;;;;;;;
2023/04/27 05:39:16;;;;;;;16.07;8.20;;;21.20;99.90;;;;;;5027703;28;20491;-85
2023/04/27 05:41:44;;;;;;;11.80;8.80;;;23.00;99.90;;;;;;5010685;28;20440;-84
2023/04/27 05:44:13;;;;;;;9.60;8.27;;;25.20;99.90;;;;;;5015973;28;20460;-85
2023/04/27 05:53:07;;;;;;;10.13;9.13;;;30.60;99.90;;;;;;5039704;28;20452;-84
2023/04/27 05:55:37;;;;;;;11.40;9.00;;;32.30;99.90;;;;;;5034000;28;20449;-85
2023/04/27 05:58:02;;;;;;;9.43;8.43;;;33.50;99.90;;;;;;5037259;28;20460;-85
2023/04/27 06:00:45;;;;;;;8.73;7.83;;;34.00;99.90;;;;;;5016070;28;20476;-84
2023/04/27 06:03:19;;;;;;;9.77;8.23;;;34.40;99.90;;;;;;5010355;28;20178;-84
2023/04/27 06:05:45;;;;;;;9.77;8.77;;;34.70;99.90;;;;;;5002894;28;20436;-84
2023/04/27 06:08:21;;;;;;;18.20;8.70;;;35.40;99.90;;;;;;5011127;28;20436;-84
2023/04/27 06:10:46;;;;;;;13.60;8.50;;;35.90;99.90;;;;;;5012166;28;20639;-84
2023/04/27 06:13:15;;;;;;;11.10;9.00;;;36.30;99.90;;;;;;5009330;28;20459;-84
2023/04/27 06:15:43;;;;;;;10.43;7.67;;;36.40;99.90;;;;;;5012223;28;20179;-85
2023/04/27 06:18:14;;;;;;;11.17;7.80;;;36.70;99.90;;;;;;5025820;28;20484;-84
2023/04/27 06:21:12;;;;;;;;;;;;;;;;;;;;;
2023/04/27 06:26:33;;;;;;;10.33;8.30;;;37.10;99.90;;;;;;5003880;28;20455;-84
2023/04/27 06:29:19;;;;;;;12.43;8.80;;;37.50;99.90;;;;;;5006375;28;20445;-85
2023/04/27 06:31:56;;;;;;;13.97;9.87;;;38.10;98.90;;;;;;5014694;28;20457;-83
2023/04/27 06:34:55;;;;;;;11.50;8.33;;;38.50;97.30;;;;;;5021740;28;20515;-85
2023/04/27 06:38:07;;;;;;;;;;;;;;;;;;;;;
2023/04/27 06:40:36;;;;;;;12.10;8.70;;;38.60;90.80;;;;;;4950833;28;20420;-85
2023/04/27 06:43:22;;;;;;;14.10;9.33;;;38.20;85.70;;;;;;4995886;28;20469;-85
2023/04/27 06:45:50;;;;;;;14.23;8.70;;;38.50;82.50;;;;;;5005299;28;20496;-85
2023/04/27 06:48:24;;;;;;;14.10;7.47;;;39.10;81.20;;;;;;5005328;28;20442;-84
2023/04/27 06:51:18;;;;;;;8.77;7.30;;;39.90;79.60;;;;;;5013025;28;20513;-84
2023/04/27 06:54:02;;;;;;;14.87;9.00;;;40.20;77.60;;;;;;5010715;28;20864;-84
2023/04/27 06:56:46;;;;;;;12.90;8.13;;;39.20;68.50;;;;;;5013114;28;20441;-85
2023/04/27 06:59:27;;;;;;;10.33;9.20;;;38.00;62.50;;;;;;5013970;28;20445;-85
2023/04/27 07:02:05;;;;;;;14.57;9.50;;;38.80;64.30;;;;;;5020661;28;20433;-85
2023/04/27 07:04:40;;;;;;;11.17;9.00;;;39.10;62.50;;;;;;5029630;28;20484;-85
2023/04/27 07:07:06;;;;;;;11.90;8.97;;;38.00;57.10;;;;;;5018515;28;20477;-83
2023/04/27 07:09:36;;;;;;;12.77;10.20;;;36.10;52.50;;;;;;5003709;28;20438;-84
2023/04/27 07:12:33;;;;;;;12.23;10.87;;;36.50;54.10;;;;;;4932226;28;20215;-85
2023/04/27 07:26:08;;;;;;;12.40;8.83;;;34.20;43.90;;;;;;4931892;29;20453;-87
2023/04/27 07:28:34;;;;;;;10.87;9.77;;;34.30;45.20;;;;;;4960990;28;20440;-84
2023/04/27 07:31:03;;;;;;;9.93;8.93;;;34.70;46.50;;;;;;4981481;28;20492;-85
2023/04/27 07:33:33;;;;;;;12.87;9.37;;;36.00;49.40;;;;;;4974976;28;20213;-85
2023/04/27 07:36:01;;;;;;;11.27;8.67;;;35.80;47.80;;;;;;4976918;28;20447;-86
2023/04/27 07:38:30;;;;;;;10.30;9.23;;;35.10;44.80;;;;;;4977724;28;20471;-84
2023/04/27 07:41:00;;;;;;;21.20;12.50;;;36.10;47.50;;;;;;4977760;28;20463;-84
2023/04/27 07:43:50;;;;;;;11.30;9.23;;;37.40;49.70;;;;;;4977785;28;20832;-84
2023/04/27 07:46:42;;;;;;;8.97;8.07;;;38.50;51.50;;;;;;4974697;28;20830;-84
2023/04/27 07:49:24;;;;;;;9.77;7.90;;;39.50;51.40;;;;;;4975379;28;20427;-84
2023/04/27 07:55:10;;;;;;;12.77;8.67;;;40.90;51.10;;;;;;4976148;28;20486;-85
2023/04/27 07:57:52;;;;;;;11.17;8.27;;;41.20;50.80;;;;;;4974948;28;20475;-83
2023/04/27 08:00:18;;;;;;;13.50;8.33;;;39.60;44.80;;;;;;4976159;28;20192;-85
2023/04/27 08:02:54;;;;;;;14.73;8.30;;;37.60;39.50;;;;;;4973337;28;20515;-83
2023/04/27 08:05:23;;;;;;;10.23;8.13;;;37.60;40.00;;;;;;4972683;28;20557;-85
2023/04/27 08:07:48;;;;;;;13.07;8.80;;;38.50;43.40;;;;;;4973585;28;20949;-85
2023/04/27 08:10:16;;;;;;;12.80;8.17;;;38.80;42.40;;;;;;4977496;28;20531;-84
2023/04/27 08:12:48;;;;;;;9.43;7.70;;;38.40;40.80;;;;;;4977234;28;20227;-84
2023/04/27 08:15:13;;;;;;;10.23;9.00;;;38.00;39.50;;;;;;4975428;28;20552;-84
2023/04/27 08:17:40;;;;;;;11.80;8.80;;;38.00;39.00;;;;;;4974085;28;20893;-84
2023/04/27 08:20:10;;;;;;;11.57;9.13;;;38.30;39.40;;;;;;4970569;28;20192;-85
2023/04/27 08:22:36;;;;;;;9.33;8.43;;;38.30;38.90;;;;;;4976569;28;21218;-84
2023/04/27 08:25:03;;;;;;;9.93;8.93;;;39.00;39.60;;;;;;4975120;28;20845;-86
2023/04/27 08:27:29;;;;;;;9.50;8.50;;;39.10;38.50;;;;;;4977079;28;20586;-88
2023/04/27 08:29:55;;;;;;;9.23;8.30;;;39.80;39.10;;;;;;4977027;28;20467;-86
2023/04/27 08:32:21;;;;;;;10.00;8.63;;;40.30;39.60;;;;;;4976317;28;20432;-84
2023/04/27 08:34:46;;;;;;;9.73;8.67;;;40.10;38.40;;;;;;4975158;28;20653;-85
2023/04/27 08:37:12;;;;;;;9.00;7.97;;;39.30;36.30;;;;;;4966619;28;20220;-84
2023/04/27 08:39:48;;;;;;;9.80;8.80;;;39.90;37.00;;;;;;4967012;28;20550;-84
2023/04/27 08:42:14;;;;;;;11.77;8.60;;;41.20;40.10;;;;;;4973765;28;20184;-83
2023/04/27 08:44:49;;;;;;;9.13;7.67;;;42.00;40.20;;;;;;4971831;28;20538;-86
2023/04/27 08:47:31;;;;;;;8.73;7.83;;;42.30;40.40;;;;;;4970081;28;20811;-86
2023/04/27 08:49:56;;;;;;;8.97;7.63;;;42.20;39.40;;;;;;4973121;28;20439;-84
2023/04/27 08:52:32;;;;;;;7.87;7.07;;;42.30;38.40;;;;;;4987166;28;20443;-85
2023/04/27 08:54:57;;;;;;;8.50;6.77;;;42.20;37.60;;;;;;4973986;28;20792;-85
2023/04/27 08:57:23;;;;;;;14.87;7.80;;;41.70;36.20;;;;;;4970984;28;20486;-85
2023/04/27 08:59:59;;;;;;;8.20;7.50;;;41.60;35.00;;;;;;4979299;28;20188;-85
2023/04/27 09:02:26;;;;;;;9.37;8.40;;;41.70;34.40;;;;;;4980162;28;20183;-85
2023/04/27 09:04:51;;;;;;;10.27;7.47;;;41.50;33.70;;;;;;4977825;28;20481;-85
2023/04/27 09:07:17;;;;;;;8.83;8.03;;;40.80;31.60;;;;;;4979852;28;20527;-85
2023/04/27 09:09:44;;;;;;;16.37;9.10;;;40.30;30.90;;;;;;4981080;28;20215;-84
2023/04/27 09:12:27;;;;;;;10.00;7.53;;;39.00;27.50;;;;;;4983104;28;20428;-84
2023/04/27 09:15:05;;;;;;;13.87;7.90;;;37.90;25.90;;;;;;4977342;28;20477;-85
2023/04/27 09:17:32;;;;;;;9.10;7.40;;;37.50;24.90;;;;;;4980026;28;20496;-85
2023/04/27 09:20:09;;;;;;;7.90;6.50;;;37.30;25.00;;;;;;4979038;28;20443;-83
2023/04/27 09:22:48;;;;;;;7.57;6.70;;;37.50;25.70;;;;;;4994688;28;20435;-84
2023/04/27 09:25:28;;;;;;;9.03;7.87;;;37.80;25.70;;;;;;4979898;28;20893;-84
2023/04/27 09:27:55;;;;;;;8.87;7.83;;;38.10;27.10;;;;;;4977793;28;20466;-85
2023/04/27 09:30:21;;;;;;;10.47;7.63;;;37.40;25.30;;;;;;4968253;28;20452;-85
2023/04/27 09:32:58;;;;;;;9.50;7.90;;;36.10;32.90;;;;;;4985872;28;20443;-84
2023/04/27 09:35:28;;;;;;;9.50;8.00;;;35.50;22.00;;;;;;4981281;28;20215;-84
2023/04/27 09:37:54;;;;;;;12.67;8.60;;;35.50;21.80;;;;;;4982095;28;20478;-83
2023/04/27 09:40:25;;;;;;;11.43;8.23;;;35.00;21.20;;;;;;4973683;28;20531;-85
2023/04/27 09:42:51;;;;;;;9.83;6.73;;;34.90;21.30;;;;;;4987048;28;20443;-84
2023/04/27 09:45:18;;;;;;;13.63;7.47;;;34.40;20.90;;;;;;4980511;28;20531;-85
2023/04/27 09:47:44;;;;;;;9.40;8.37;;;34.10;20.40;;;;;;4973958;28;20440;-84
2023/04/27 09:50:12;;;;;;;8.87;7.33;;;33.30;19.10;;;;;;4979142;28;20451;-84
2023/04/27 09:52:37;;;;;;;9.97;7.03;;;33.00;19.10;;;;;;4982782;28;20188;-82
2023/04/27 09:55:11;;;;;;;11.20;6.60;;;33.40;20.40;;;;;;4975101;28;20464;-85
2023/04/27 09:57:52;;;;;;;12.60;8.00;;;33.10;19.90;;;;;;4979814;28;20227;-85
2023/04/27 10:00:42;;;;;;;12.30;7.20;;;32.40;17.80;;;;;;4977080;28;20431;-85
2023/04/27 10:03:26;;;;;;;11.63;7.17;;;31.70;16.90;;;;;;4980503;28;20511;-85
2023/04/27 10:06:27;;;;;;;10.90;7.40;;;31.70;17.70;;;;;;4976623;28;20496;-84
2023/04/27 10:08:56;;;;;;;9.13;8.13;;;31.80;18.10;;;;;;4974657;28;20431;-85
2023/04/27 10:11:48;;;;;;;9.63;6.87;;;31.50;17.60;;;;;;4975611;28;20444;-85
2023/04/27 10:14:22;;;;;;;11.30;7.27;;;31.50;17.90;;;;;;4973772;28;20531;-85
2023/04/27 10:16:57;;;;;;;9.23;7.40;;;31.30;18.00;;;;;;4971967;28;20464;-86
2023/04/27 10:19:23;;;;;;;10.10;7.83;;;31.10;17.20;;;;;;4975238;28;20866;-84
2023/04/27 10:22:02;;;;;;;8.30;6.43;;;31.30;18.40;;;;;;4990419;28;20444;-85
2023/04/27 10:24:36;;;;;;;7.70;5.90;;;30.60;16.60;;;;;;4978168;28;20462;-85
2023/04/27 10:27:11;;;;;;;12.90;7.70;;;30.40;16.70;;;;;;4976807;28;20443;-83
2023/04/27 10:29:40;;;;;;;14.20;7.77;;;31.10;18.70;;;;;;4972366;28;20438;-85
2023/04/27 10:32:27;;;;;;;12.70;7.70;;;31.60;19.60;;;;;;4983044;28;20420;-85
2023/04/27 10:35:11;;;;;;;11.83;8.17;;;31.80;20.40;;;;;;4980096;28;20536;-87
2023/04/27 10:37:40;;;;;;;11.83;8.27;;;31.90;20.60;;;;;;4978215;28;20466;-85
2023/04/27 10:40:09;;;;;;;10.27;8.13;;;32.10;21.90;;;;;;4975064;28;20436;-85
2023/04/27 10:42:35;;;;;;;8.00;7.20;;;31.50;20.10;;;;;;4973355;28;21061;-86
2023/04/27 10:45:01;;;;;;;8.60;7.53;;;31.20;19.90;;;;;;4970149;28;20546;-86
2023/04/27 10:47:57;;;;;;;11.80;8.30;;;31.10;19.40;;;;;;4973662;28;20467;-86
2023/04/27 10:50:23;;;;;;;10.53;8.30;;;30.80;19.20;;;;;;4971756;28;20224;-84
2023/04/27 10:52:48;;;;;;;11.63;7.87;;;30.50;18.70;;;;;;4973603;28;20488;-85
2023/04/27 10:55:15;;;;;;;13.43;8.50;;;30.40;18.90;;;;;;4973114;28;20487;-86
2023/04/27 10:58:00;;;;;;;10.53;7.77;;;30.30;18.40;;;;;;4974349;28;20204;-85
2023/04/27 11:00:35;;;;;;;9.13;7.93;;;29.70;17.40;;;;;;4966757;28;20442;-84
2023/04/27 11:03:13;;;;;;;10.60;8.57;;;30.10;18.10;;;;;;4971612;28;20844;-86
2023/04/27 11:05:39;;;;;;;17.50;8.53;;;30.50;19.70;;;;;;4966920;28;21007;-85
2023/04/27 11:08:10;;;;;;;10.90;7.60;;;30.80;20.30;;;;;;4975461;28;20479;-85
2023/04/27 11:10:46;;;;;;;13.13;11.00;;;30.80;20.80;;;;;;4976523;28;20443;-85
2023/04/27 11:13:20;;;;;;;12.93;11.53;;;30.50;19.90;;;;;;4973462;28;20449;-85
2023/04/27 11:15:59;;;;;;;13.90;11.17;;;30.00;18.90;;;;;;4975820;28;20546;-85
2023/04/27 11:18:28;;;;;;;17.57;12.73;;;29.50;18.30;;;;;;4972644;28;20518;-85
2023/04/27 11:21:15;;;;;;;13.97;11.87;;;29.30;18.20;;;;;;4968946;28;20532;-85
2023/04/27 11:23:41;;;;;;;15.60;12.07;;;28.90;17.60;;;;;;4972322;28;20463;-85
2023/04/27 11:26:10;;;;;;;14.13;12.63;;;28.80;18.50;;;;;;4977947;28;20447;-86
2023/04/27 11:28:36;;;;;;;15.60;12.67;;;29.30;19.40;;;;;;4974553;28;20443;-85
2023/04/27 11:31:03;;;;;;;13.30;10.23;;;29.60;20.20;;;;;;4976360;28;20949;-86
2023/04/27 11:33:29;;;;;;;13.80;9.63;;;30.10;21.50;;;;;;4977305;28;20509;-85
2023/04/27 11:35:55;;;;;;;16.77;11.67;;;30.10;21.80;;;;;;4978245;28;20522;-85
2023/04/27 11:38:21;;;;;;;11.67;10.30;;;30.20;22.00;;;;;;4978829;28;20534;-85
2023/04/27 11:41:02;;;;;;;13.00;10.77;;;30.10;22.00;;;;;;4981457;28;20508;-85
2023/04/27 11:43:28;;;;;;;13.10;10.77;;;30.50;22.50;;;;;;4978795;28;20450;-86
2023/04/27 11:45:55;;;;;;;13.77;10.13;;;30.80;24.00;;;;;;4974701;28;20951;-84
2023/04/27 11:48:22;;;;;;;14.17;10.57;;;31.20;24.20;;;;;;4976632;28;20208;-85
2023/04/27 11:50:49;;;;;;;15.10;9.90;;;31.30;24.80;;;;;;4974512;28;20541;-85
2023/04/27 11:53:15;;;;;;;11.53;8.77;;;31.20;23.90;;;;;;4978787;28;20454;-85
2023/04/27 11:55:42;;;;;;;11.60;9.50;;;31.30;24.90;;;;;;4976844;28;20436;-84
2023/04/27 11:58:17;;;;;;;12.40;9.87;;;31.50;24.80;;;;;;4981272;28;20471;-84
2023/04/27 12:00:43;;;;;;;14.70;10.70;;;31.70;25.00;;;;;;4976465;28;20470;-85
2023/04/27 12:03:12;;;;;;;11.90;9.10;;;32.00;25.70;;;;;;4974001;28;20946;-85
2023/04/27 12:05:54;;;;;;;11.50;8.77;;;32.20;26.50;;;;;;4982536;28;20176;-85
2023/04/27 12:08:39;;;;;;;10.43;9.33;;;32.50;26.50;;;;;;4982255;28;20431;-85
2023/04/27 12:11:04;;;;;;;11.93;9.27;;;32.80;26.90;;;;;;4976503;28;20464;-82
2023/04/27 12:13:33;;;;;;;13.10;8.90;;;32.50;25.60;;;;;;4975846;28;20454;-85
2023/04/27 12:15:58;;;;;;;9.43;8.43;;;32.10;24.70;;;;;;4983589;28;20250;-84
2023/04/27 12:18:24;;;;;;;12.23;9.50;;;32.40;25.40;;;;;;4976486;28;20475;-85
2023/04/27 12:20:49;;;;;;;10.60;9.50;;;32.70;26.20;;;;;;4981620;28;20729;-85
2023/04/27 12:23:15;;;;;;;13.73;11.00;;;33.00;26.60;;;;;;4973662;28;20291;-85
2023/04/27 12:25:42;;;;;;;10.37;9.20;;;32.40;24.90;;;;;;4976173;28;20176;-84
2023/04/27 12:28:08;;;;;;;12.63;9.63;;;31.80;22.60;;;;;;4985089;28;20191;-85
2023/04/27 12:30:34;;;;;;;10.97;8.90;;;31.70;22.80;;;;;;4979963;28;20433;-83
2023/04/27 12:32:59;;;;;;;11.03;9.53;;;31.90;22.80;;;;;;4969012;28;20197;-85
2023/04/27 12:35:25;;;;;;;12.33;8.97;;;32.00;23.40;;;;;;4978712;28;20208;-84
2023/04/27 12:37:51;;;;;;;14.13;9.17;;;32.20;23.90;;;;;;4978301;28;20200;-85
2023/04/27 12:40:17;;;;;;;12.40;10.53;;;32.40;24.20;;;;;;4969040;28;20199;-85
2023/04/27 12:42:42;;;;;;;17.00;10.90;;;32.10;23.90;;;;;;4976810;28;20423;-83
2023/04/27 12:45:08;;;;;;;12.57;10.20;;;31.40;21.80;;;;;;4978690;28;20208;-84
2023/04/27 12:47:34;;;;;;;13.70;11.30;;;30.30;18.70;;;;;;4985541;28;20180;-84
2023/04/27 12:49:59;;;;;;;17.87;12.00;;;29.50;17.00;;;;;;4982095;28;20180;-84
2023/04/27 12:52:26;;;;;;;12.83;11.00;;;29.20;17.90;;;;;;4968921;28;20185;-84
2023/04/27 12:54:56;;;;;;;16.37;10.90;;;29.30;17.20;;;;;;4972185;28;20271;-85
2023/04/27 12:57:22;;;;;;;12.60;11.30;;;29.30;18.90;;;;;;4982814;28;20529;-85
2023/04/27 12:59:47;;;;;;;13.10;11.10;;;29.10;17.90;;;;;;4973371;28;20467;-85
2023/04/27 13:02:13;;;;;;;13.63;12.30;;;29.00;17.80;;;;;;4984858;28;20188;-84
2023/04/27 13:04:38;;;;;;;13.30;11.90;;;29.10;17.70;;;;;;4970258;28;20215;-84
2023/04/27 13:07:05;;;;;;;14.27;12.03;;;29.10;18.70;;;;;;4987787;28;20282;-84
2023/04/27 13:09:30;;;;;;;16.03;14.00;;;29.10;18.60;;;;;;4972591;28;20192;-84
2023/04/27 13:11:57;;;;;;;14.73;11.93;;;28.60;17.40;;;;;;4986819;28;20447;-83
2023/04/27 13:14:23;;;;;;;17.27;11.77;;;28.50;17.00;;;;;;4977655;28;20239;-85
2023/04/27 13:16:49;;;;;;;14.20;10.67;;;28.50;17.80;;;;;;4985789;28;20554;-84
2023/04/27 13:19:14;;;;;;;16.63;13.33;;;28.10;17.00;;;;;;4991645;28;20435;-84
2023/04/27 13:21:40;;;;;;;18.00;12.50;;;27.80;16.80;;;;;;4978783;28;20173;-83
2023/04/27 13:24:06;;;;;;;13.23;11.53;;;27.80;17.40;;;;;;4971033;28;20263;-84
2023/04/27 13:26:31;;;;;;;16.10;12.60;;;27.90;17.60;;;;;;4977209;28;20184;-84
2023/04/27 13:28:57;;;;;;;14.80;13.30;;;27.40;16.90;;;;;;4982614;28;20211;-84
2023/04/27 13:31:23;;;;;;;16.43;12.90;;;27.20;16.30;;;;;;4978677;28;20181;-84
2023/04/27 13:33:48;;;;;;;12.00;10.80;;;27.10;16.30;;;;;;4981694;28;20250;-84
2023/04/27 13:36:14;;;;;;;16.13;11.40;;;27.20;16.50;;;;;;4983714;28;20188;-84
2023/04/27 13:38:40;;;;;;;13.57;10.50;;;27.50;18.20;;;;;;4977897;28;20215;-83
2023/04/27 13:41:06;;;;;;;18.53;11.47;;;27.10;17.60;;;;;;4983417;28;20447;-84
2023/04/27 13:43:32;;;;;;;16.20;12.23;;;26.60;16.20;;;;;;4977338;28;20558;-84
2023/04/27 13:45:58;;;;;;;13.00;11.20;;;25.90;13.90;;;;;;4976467;28;20531;-84
2023/04/27 13:48:24;;;;;;;15.57;11.67;;;25.50;13.60;;;;;;4984422;28;20192;-84
2023/04/27 13:50:50;;;;;;;16.63;11.90;;;25.50;13.70;;;;;;4976243;28;20459;-84
2023/04/27 13:53:15;;;;;;;14.67;10.87;;;25.60;15.30;;;;;;4974963;28;20747;-83
2023/04/27 13:55:42;;;;;;;16.33;11.50;;;25.80;15.80;;;;;;4972031;28;20188;-84
2023/04/27 13:58:07;;;;;;;16.30;10.93;;;26.00;16.10;;;;;;4982217;28;20208;-84
2023/04/27 14:00:33;;;;;;;15.13;10.90;;;26.30;17.30;;;;;;4975634;28;20435;-84
2023/04/27 14:03:00;;;;;;;14.00;10.10;;;26.50;18.30;;;;;;4977590;28;20172;-84
2023/04/27 14:05:26;;;;;;;13.77;9.37;;;26.50;18.70;;;;;;4976358;28;20223;-83
2023/04/27 14:07:52;;;;;;;14.63;9.63;;;26.60;18.10;;;;;;4978290;28;20763;-83
2023/04/27 14:10:18;;;;;;;13.40;10.50;;;26.40;18.30;;;;;;4972844;28;20189;-83
2023/04/27 14:12:44;;;;;;;17.20;10.93;;;26.20;18.00;;;;;;4972496;28;20433;-83
2023/04/27 14:15:09;;;;;;;16.27;10.63;;;26.00;17.60;;;;;;4975047;28;20490;-82
2023/04/27 14:17:35;;;;;;;16.90;10.47;;;25.70;17.40;;;;;;4974113;28;20204;-83
2023/04/27 14:20:00;;;;;;;17.83;10.43;;;25.60;17.90;;;;;;4978774;28;20247;-83
2023/04/27 14:22:26;;;;;;;15.67;11.23;;;25.40;17.40;;;;;;4973384;28;20906;-83
2023/04/27 14:24:51;;;;;;;14.80;10.67;;;25.10;16.70;;;;;;4973225;28;20651;-83
2023/04/27 14:27:17;;;;;;;16.30;10.63;;;25.00;17.30;;;;;;4974541;28;20554;-84
2023/04/27 14:29:42;;;;;;;12.73;10.43;;;25.00;17.20;;;;;;4974173;28;20191;-84
2023/04/27 14:32:08;;;;;;;16.07;10.17;;;25.00;17.60;;;;;;4965744;28;20195;-82
2023/04/27 14:34:34;;;;;;;14.20;9.73;;;24.70;17.30;;;;;;4964157;28;20218;-83
2023/04/27 14:37:00;;;;;;;14.50;10.00;;;24.40;16.20;;;;;;4973563;28;20202;-83
2023/04/27 14:39:26;;;;;;;17.00;11.30;;;24.00;15.00;;;;;;4965235;28;20253;-83
2023/04/27 14:41:52;;;;;;;13.50;10.47;;;23.90;14.60;;;;;;4973505;28;20273;-83
2023/04/27 14:44:18;;;;;;;14.87;10.73;;;23.80;15.00;;;;;;4980429;28;20509;-81
2023/04/27 14:46:43;;;;;;;16.23;11.50;;;24.00;15.60;;;;;;4979312;28;20198;-83
2023/04/27 14:49:09;;;;;;;22.93;11.67;;;24.00;16.60;;;;;;4978201;28;20650;-83
2023/04/27 14:51:35;;;;;;;18.50;11.87;;;24.00;17.10;;;;;;4967530;28;20644;-83
2023/04/27 14:54:01;;;;;;;17.80;11.90;;;24.10;18.20;;;;;;4967107;28;20218;-83
2023/04/27 14:56:26;;;;;;;17.57;10.80;;;24.00;17.90;;;;;;4969619;28;20186;-84
2023/04/27 14:58:54;;;;;;;15.13;10.93;;;23.90;17.90;;;;;;4973902;28;20472;-81
2023/04/27 15:01:19;;;;;;;12.90;10.90;;;23.80;18.20;;;;;;4965079;28;20259;-84
2023/04/27 15:03:45;;;;;;;16.00;10.97;;;23.60;18.00;;;;;;4978501;28;20454;-84
2023/04/27 15:06:11;;;;;;;16.67;10.93;;;23.50;17.70;;;;;;4988738;28;20500;-84
2023/04/27 15:08:36;;;;;;;24.50;11.80;;;23.40;18.50;;;;;;4982611;28;20208;-84
2023/04/27 15:11:03;;;;;;;17.73;10.77;;;23.20;17.70;;;;;;4993596;28;20407;-85